Repülésmeteorológia

  • METAR LHSM 191815Z 31005KT 3000 BR NSC 12/10 Q1022=
  • METAR LHSM 191745Z 31005KT 4000 BR NSC 12/10 Q1021=
  • METAR LHSM 191715Z 32005KT 4000 BR NSC 12/10 Q1021=
  • METAR LHSM 191645Z 33006KT 4000 BR NSC 13/10 Q1021 NOSIG=
  • METAR LHSM 191615Z 35006KT 5000 HZ NSC 15/11 Q1021 NOSIG=

  • TAF LHSM 191115Z 1912/1921 34008KT 5000 HZ NSC=
  • TAF LHSM 190815Z 1909/1918 34006KT 2000 BR NSC
  • TAF LHSM 190515Z 1906/1915 32008KT 3000 BR NSC
  • TAF LHSM 181115Z 1812/1821 06006KT CAVOK
  • TAF LHSM 180815Z 1809/1818 VRB02KT CAVOK